• Join FlightAware (Why Join?)
  • Login
  • US Flag 
06:37PM EDT


 

Airport Tracker/Info


-or-


 

Live Flight TrackerFlight Track Log ✈ N7667S ✈ 21-Feb-2014 ✈ KLGA - KFOK

Flight Track Log - Related Links

Times and Time Zones

All times are in EST time to prevent confusion due to time zone crossing. See the N7667S flight status page for this flight to view local times or setup timezone preferences in your user account.

Time Position Orientation Groundspeed Altitude Reporting Facility
EST Latitude Longitude Course Direction KTS MPH feet Rate Location/Type
06:10PM 40.7833 -73.9833 56° Northeast 117 135 1,800  Level New York TRACON
06:11PM 40.8167 -73.9667 21° North 139 160 2,100 120 Climbing New York TRACON
06:12PM 40.8667 -73.9333 27° Northeast 162 186 2,100 300 Level New York TRACON
06:13PM 40.9000 -73.9000 37° Northeast 155 178 2,800 780 Climbing New York TRACON
06:14PM 40.9333 -73.8667 37° Northeast 160 184 3,700 900 Climbing New York TRACON
06:15PM 40.8830 -73.6383 56° Northeast  Level FlightAware Approximate
06:15PM 40.9667 -73.8333 37° Northeast 169 194 4,600  Level New York TRACON
06:16PM 41.0000 -73.7833 49° Northeast 188 216 5,100 180 Climbing New York TRACON
06:17PM 41.0167 -73.7167 72° East 197 227 5,100  Level New York TRACON
06:18PM 41.0333 -73.6500 72° East 188 216 5,100  Level New York TRACON
06:19PM 41.0500 -73.5833 72° East 191 220 5,100  Level New York TRACON
06:20PM 41.0667 -73.5167 72° East 190 219 5,100  Level New York TRACON
06:21PM 41.0833 -73.4500 72° East 190 219 5,100  Level New York TRACON
06:22PM 41.0833 -73.3833 90° East 185 213 5,100  Level New York TRACON
06:23PM 41.0833 -73.3167 90° East 176 203 5,100  Level New York TRACON
06:24PM 41.0667 -73.2500 108° East 174 200 5,100  Level New York TRACON
06:25PM 41.0667 -73.2000 90° East 175 201 5,100  Level New York TRACON
06:26PM 41.0500 -73.1333 108° East 174 200 5,100  Level New York TRACON
06:27PM 41.0500 -73.0667 90° East 174 200 5,100  Level New York TRACON
06:28PM 41.0500 -73.0000 90° East 176 203 5,100  Level New York TRACON
06:29PM 41.0333 -72.9333 108° East 173 199 5,100  Level New York TRACON
06:30PM 41.0333 -72.8667 90° East 171 197 5,100  Level New York TRACON
06:31PM 41.0167 -72.8167 114° Southeast 174 200 5,100 -300 Level New York TRACON
06:32PM 41.0000 -72.7500 108° East 173 199 4,600 -660 Descending New York TRACON
06:33PM 41.0000 -72.6833 90° East 175 201 3,800 -840 Descending New York TRACON
06:34PM 40.9833 -72.6333 114° Southeast 167 192 3,000 -780 Descending New York TRACON
06:35PM 40.9667 -72.5667 108° East 169 194 2,300 -480 Descending New York TRACON
06:36PM 40.9500 -72.5000 108° East 171 197 2,100 -120 Descending New York TRACON
06:37PM 40.9500 -72.4500 90° East 169 194 2,100  Level New York TRACON
07:08PM 41.0167 -72.3833 304° West 102 117 2,700  Climbing New York TRACON
07:09PM 41.0167 -72.4167 270° West 112 129 2,500 -120 Descending New York TRACON
07:10PM 41.0167 -72.4500 270° West 108 124 2,500  Level New York TRACON
07:12PM 41.0167 -72.5000 270° West 107 123 2,500  Level New York TRACON